createdAt,value
2023-01-09T00:00:16.577Z,90.80
2023-01-09T00:03:38.771Z,90.80
2023-01-09T00:07:01.503Z,90.50
2023-01-09T00:10:23.650Z,90.40
2023-01-09T00:13:47.168Z,90.40
2023-01-09T00:17:09.275Z,90.20
2023-01-09T00:20:31.379Z,90.20
2023-01-09T00:23:54.034Z,90.20
2023-01-09T00:27:18.331Z,90.10
2023-01-09T00:30:40.472Z,90.20
2023-01-09T00:34:05.288Z,90.20
2023-01-09T00:37:27.467Z,90.30
2023-01-09T00:40:49.876Z,90.30
2023-01-09T00:44:17.494Z,90.10
2023-01-09T00:47:43.083Z,90.00
2023-01-09T00:51:05.406Z,90.00
2023-01-09T00:54:28.593Z,90.00
2023-01-09T00:57:50.702Z,89.70
2023-01-09T01:01:12.964Z,89.50
2023-01-09T01:04:53.662Z,89.80
2023-01-09T01:08:16.707Z,89.70
2023-01-09T01:11:38.877Z,89.40
2023-01-09T01:15:01.525Z,89.30
2023-01-09T01:18:23.720Z,89.10
2023-01-09T01:21:45.854Z,89.20
2023-01-09T01:25:08.582Z,89.10
2023-01-09T01:28:30.809Z,88.90
2023-01-09T01:31:52.947Z,88.80
2023-01-09T01:35:15.169Z,88.80
2023-01-09T01:38:37.396Z,88.90
2023-01-09T01:41:59.685Z,88.80
2023-01-09T01:45:26.449Z,88.60
2023-01-09T01:48:53.354Z,88.60
2023-01-09T01:52:17.461Z,88.50
2023-01-09T01:55:41.529Z,88.70
2023-01-09T01:59:11.542Z,88.70
2023-01-09T02:02:33.875Z,88.60
2023-01-09T02:05:59.520Z,88.50
2023-01-09T02:09:23.021Z,88.50
2023-01-09T02:12:45.201Z,88.50
2023-01-09T02:16:07.486Z,88.50
2023-01-09T02:19:47.883Z,89.00
2023-01-09T02:23:10.076Z,89.10
2023-01-09T02:26:52.928Z,89.30
2023-01-09T02:30:20.912Z,89.30
2023-01-09T02:33:43.299Z,89.50
2023-01-09T02:37:12.747Z,89.30
2023-01-09T02:40:40.946Z,89.20
2023-01-09T02:44:14.711Z,89.20
2023-01-09T02:47:40.066Z,89.10
2023-01-09T02:51:23.960Z,88.90
2023-01-09T02:54:49.161Z,88.80
2023-01-09T02:58:11.442Z,88.60
2023-01-09T03:01:52.313Z,88.40
2023-01-09T03:05:32.559Z,88.30
2023-01-09T03:08:57.223Z,88.30
2023-01-09T03:12:24.783Z,88.30
2023-01-09T03:15:50.619Z,88.20
2023-01-09T03:19:14.548Z,88.30
2023-01-09T03:22:36.890Z,88.30
2023-01-09T03:25:59.233Z,88.30
2023-01-09T03:29:21.491Z,88.30
2023-01-09T03:32:43.738Z,88.20
2023-01-09T03:36:06.573Z,88.30
2023-01-09T03:39:28.831Z,88.20
2023-01-09T03:42:50.887Z,88.20
2023-01-09T03:46:13.060Z,88.20
2023-01-09T03:49:35.321Z,87.90
2023-01-09T03:52:57.415Z,88.00
2023-01-09T03:56:19.679Z,87.90
2023-01-09T03:59:41.778Z,88.10
2023-01-09T04:03:04.081Z,87.90
2023-01-09T04:06:26.216Z,87.80
2023-01-09T04:09:48.585Z,87.90
2023-01-09T04:13:10.675Z,87.60
2023-01-09T04:16:33.020Z,87.60
2023-01-09T04:19:55.122Z,87.50
2023-01-09T04:23:17.264Z,87.40
2023-01-09T04:26:39.432Z,87.30
2023-01-09T04:30:01.634Z,87.20
2023-01-09T04:33:23.784Z,86.90
2023-01-09T04:36:47.832Z,86.90
2023-01-09T04:40:11.556Z,86.70
2023-01-09T04:43:33.676Z,86.60
2023-01-09T04:46:56.688Z,86.60
2023-01-09T04:50:18.828Z,86.70
2023-01-09T04:53:40.910Z,86.70
2023-01-09T04:57:03.003Z,86.70
2023-01-09T05:00:25.127Z,86.40
2023-01-09T05:03:47.187Z,86.50
2023-01-09T05:07:09.336Z,86.50
2023-01-09T05:10:31.471Z,87.40
2023-01-09T05:13:53.782Z,87.40
2023-01-09T05:17:15.955Z,87.70
2023-01-09T05:20:38.306Z,87.70
2023-01-09T05:24:00.450Z,87.50
2023-01-09T05:27:22.593Z,87.50
2023-01-09T05:30:44.630Z,87.30
2023-01-09T05:34:06.753Z,87.20
2023-01-09T05:37:29.199Z,87.00
2023-01-09T05:40:51.348Z,86.90
2023-01-09T05:44:13.503Z,87.10
2023-01-09T05:47:35.970Z,87.10
2023-01-09T05:50:58.060Z,87.20
2023-01-09T05:54:20.337Z,87.10
2023-01-09T05:57:42.498Z,86.80
2023-01-09T06:01:04.815Z,87.00
2023-01-09T06:04:29.848Z,87.20
2023-01-09T06:07:51.933Z,87.20
2023-01-09T06:11:14.016Z,87.00
2023-01-09T06:14:36.863Z,86.90
2023-01-09T06:17:59.197Z,87.00
2023-01-09T06:21:21.666Z,87.20
2023-01-09T06:24:43.762Z,87.20
2023-01-09T06:28:05.900Z,87.30
2023-01-09T06:31:28.115Z,87.00
2023-01-09T06:34:52.895Z,86.80
2023-01-09T06:38:15.107Z,88.00
2023-01-09T06:41:37.615Z,88.00
2023-01-09T06:44:59.860Z,88.50
2023-01-09T06:48:22.077Z,87.20
2023-01-09T06:51:44.197Z,86.70
2023-01-09T06:55:06.823Z,87.10
2023-01-09T06:58:29.039Z,88.40
2023-01-09T07:01:51.416Z,88.70
2023-01-09T07:05:13.798Z,87.60
2023-01-09T07:08:36.109Z,87.90
2023-01-09T07:11:58.264Z,87.30
2023-01-09T07:15:20.597Z,88.00
2023-01-09T07:18:42.777Z,89.00
2023-01-09T07:22:05.051Z,88.70
2023-01-09T07:25:27.216Z,88.20
2023-01-09T07:28:49.453Z,87.40
2023-01-09T07:32:11.605Z,88.40
2023-01-09T07:35:33.789Z,88.70
2023-01-09T07:38:56.022Z,89.60
2023-01-09T07:42:18.263Z,90.20
2023-01-09T07:45:40.428Z,90.70
2023-01-09T07:49:02.840Z,90.40
2023-01-09T07:52:25.033Z,90.30
2023-01-09T07:55:47.248Z,90.00
2023-01-09T07:59:09.479Z,90.00
2023-01-09T08:02:31.800Z,89.70
2023-01-09T08:05:54.065Z,90.30
2023-01-09T08:09:16.259Z,89.30
2023-01-09T08:12:38.420Z,89.70
2023-01-09T08:16:00.678Z,89.60
2023-01-09T08:19:23.961Z,89.30
2023-01-09T08:22:50.490Z,89.90
2023-01-09T08:26:12.759Z,88.80
2023-01-09T08:29:34.945Z,89.10
2023-01-09T08:32:57.104Z,88.90
2023-01-09T08:36:19.308Z,88.30
2023-01-09T08:39:41.594Z,87.90
2023-01-09T08:43:22.559Z,87.70
2023-01-09T08:47:03.113Z,87.80
2023-01-09T08:50:25.397Z,88.30
2023-01-09T08:53:47.601Z,87.90
2023-01-09T08:57:09.817Z,87.60
2023-01-09T09:00:31.955Z,87.40
2023-01-09T09:03:54.191Z,86.90
2023-01-09T09:07:16.322Z,87.00
2023-01-09T09:10:38.653Z,85.60
2023-01-09T09:14:00.883Z,86.60
2023-01-09T09:17:23.086Z,86.60
2023-01-09T09:20:45.361Z,86.50
2023-01-09T09:24:07.699Z,86.60
2023-01-09T09:27:30.036Z,86.50
2023-01-09T09:30:52.435Z,86.80
2023-01-09T09:34:14.828Z,89.40
2023-01-09T09:37:37.299Z,87.40
2023-01-09T09:41:37.154Z,87.50
2023-01-09T09:45:02.467Z,87.60
2023-01-09T09:48:30.857Z,88.60
2023-01-09T09:52:19.277Z,90.40
2023-01-09T09:55:42.206Z,89.70
2023-01-09T09:59:06.718Z,88.90
2023-01-09T10:02:50.522Z,88.30
2023-01-09T10:06:18.510Z,88.30
2023-01-09T10:09:43.172Z,88.00
2023-01-09T10:13:23.925Z,88.50
2023-01-09T10:17:04.028Z,88.10
2023-01-09T10:20:38.397Z,89.50
2023-01-09T10:24:09.550Z,90.00
2023-01-09T10:27:40.497Z,89.40
2023-01-09T10:31:08.124Z,89.30
2023-01-09T10:34:37.158Z,88.80
2023-01-09T10:38:01.447Z,88.80
2023-01-09T10:41:49.674Z,88.90
2023-01-09T10:45:17.898Z,88.80
2023-01-09T10:48:42.668Z,88.50
2023-01-09T10:52:11.366Z,88.40
2023-01-09T10:55:49.914Z,88.30
2023-01-09T10:59:12.224Z,88.50
2023-01-09T11:02:35.215Z,87.80
2023-01-09T11:05:58.497Z,88.00
2023-01-09T11:09:20.797Z,87.50
2023-01-09T11:12:43.142Z,87.10
2023-01-09T11:16:05.717Z,86.70
2023-01-09T11:19:28.039Z,86.50
2023-01-09T11:22:51.194Z,86.10
2023-01-09T11:26:35.148Z,85.00
2023-01-09T11:30:05.568Z,84.40
2023-01-09T11:33:33.246Z,84.40
2023-01-09T11:37:02.304Z,84.30
2023-01-09T11:40:24.682Z,84.30
2023-01-09T11:43:49.791Z,84.10
2023-01-09T11:47:24.713Z,83.90
2023-01-09T11:50:53.919Z,83.70
2023-01-09T11:54:18.678Z,83.60
2023-01-09T11:57:41.729Z,84.30
2023-01-09T12:01:22.645Z,84.80
2023-01-09T12:05:03.307Z,85.50
2023-01-09T12:08:25.450Z,86.10
2023-01-09T12:11:56.987Z,86.20
2023-01-09T12:15:25.839Z,86.20
2023-01-09T12:18:48.275Z,86.50
2023-01-09T12:22:29.983Z,87.80
2023-01-09T12:26:13.622Z,87.20
2023-01-09T12:29:35.895Z,87.60
2023-01-09T12:33:30.711Z,87.50
2023-01-09T12:37:06.075Z,87.40
2023-01-09T12:40:40.490Z,87.70
2023-01-09T12:44:34.392Z,87.80
2023-01-09T12:48:03.278Z,87.80
2023-01-09T12:51:35.263Z,87.90
2023-01-09T12:55:04.077Z,87.90
2023-01-09T12:58:31.725Z,87.90
2023-01-09T13:01:54.134Z,87.80
2023-01-09T13:05:24.680Z,86.50
2023-01-09T13:08:53.499Z,86.20
2023-01-09T13:12:18.300Z,86.00
2023-01-09T13:15:49.798Z,86.10
2023-01-09T13:19:15.098Z,86.50
2023-01-09T13:22:37.317Z,85.70
2023-01-09T13:26:08.069Z,87.90
2023-01-09T13:29:32.924Z,88.60
2023-01-09T13:33:01.189Z,89.30
2023-01-09T13:36:23.339Z,89.90
2023-01-09T13:39:54.348Z,89.60
2023-01-09T13:43:17.088Z,89.40
2023-01-09T13:46:41.231Z,88.80
2023-01-09T13:50:09.623Z,88.40
2023-01-09T13:53:32.513Z,88.90
2023-01-09T13:57:13.618Z,88.60
2023-01-09T14:00:35.806Z,89.00
2023-01-09T14:04:10.108Z,89.60
2023-01-09T14:07:33.321Z,89.50
2023-01-09T14:11:00.956Z,88.40
2023-01-09T14:14:27.263Z,89.40
2023-01-09T14:17:58.025Z,89.60
2023-01-09T14:21:20.554Z,89.80
2023-01-09T14:24:43.907Z,89.70
2023-01-09T14:28:08.971Z,90.00
2023-01-09T14:31:32.723Z,90.00
2023-01-09T14:35:03.799Z,90.00
2023-01-09T14:38:28.935Z,89.80
2023-01-09T14:41:57.816Z,90.20
2023-01-09T14:45:27.083Z,89.70
2023-01-09T14:48:57.353Z,89.70
2023-01-09T14:52:26.260Z,90.20
2023-01-09T14:55:51.355Z,90.00
2023-01-09T14:59:14.267Z,90.10
2023-01-09T15:02:37.151Z,90.00
2023-01-09T15:06:00.018Z,90.00
2023-01-09T15:09:24.985Z,88.40
2023-01-09T15:12:49.267Z,89.20
2023-01-09T15:16:17.197Z,89.30
2023-01-09T15:19:44.186Z,89.10
2023-01-09T15:23:06.663Z,89.30
2023-01-09T15:26:30.099Z,88.90
2023-01-09T15:29:52.542Z,89.40
2023-01-09T15:33:16.313Z,90.10
2023-01-09T15:36:38.614Z,89.40
2023-01-09T15:40:02.797Z,89.50
2023-01-09T15:43:26.693Z,89.50
2023-01-09T15:46:50.270Z,88.80
2023-01-09T15:50:13.758Z,90.00
2023-01-09T15:53:36.501Z,90.20
2023-01-09T15:57:17.286Z,90.10
2023-01-09T16:00:41.782Z,90.10
2023-01-09T16:04:09.757Z,90.20
2023-01-09T16:07:32.058Z,90.40
2023-01-09T16:10:55.499Z,90.00
2023-01-09T16:14:20.666Z,90.00
2023-01-09T16:18:02.768Z,90.10
2023-01-09T16:21:35.528Z,89.70
2023-01-09T16:24:59.163Z,89.70
2023-01-09T16:28:26.987Z,89.70
2023-01-09T16:31:50.533Z,89.90
2023-01-09T16:35:17.123Z,90.00
2023-01-09T16:38:41.711Z,89.80
2023-01-09T16:42:27.092Z,89.40
2023-01-09T16:45:50.624Z,88.30
2023-01-09T16:49:16.029Z,87.20
2023-01-09T16:52:38.198Z,86.80
2023-01-09T16:56:00.502Z,86.90
2023-01-09T16:59:26.507Z,87.20
2023-01-09T17:02:48.790Z,87.10
2023-01-09T17:06:15.366Z,87.00
2023-01-09T17:09:38.949Z,87.40
2023-01-09T17:13:01.188Z,88.80
2023-01-09T17:16:23.761Z,89.20
2023-01-09T17:19:46.869Z,89.80
2023-01-09T17:23:09.049Z,90.00
2023-01-09T17:26:50.026Z,90.30
2023-01-09T17:30:18.719Z,90.60
2023-01-09T17:33:41.783Z,90.60
2023-01-09T17:37:04.769Z,90.10
2023-01-09T17:40:27.948Z,90.20
2023-01-09T17:43:50.204Z,90.20
2023-01-09T17:47:15.771Z,90.40
2023-01-09T17:50:38.034Z,90.60
2023-01-09T17:54:00.242Z,91.10
2023-01-09T17:57:22.407Z,91.10
2023-01-09T18:00:46.643Z,92.90
2023-01-09T18:04:08.813Z,93.80
2023-01-09T18:07:30.944Z,95.20
2023-01-09T18:10:53.156Z,96.70
2023-01-09T18:14:15.499Z,91.10
2023-01-09T18:17:37.705Z,90.30
2023-01-09T18:21:03.668Z,92.20
2023-01-09T18:24:26.014Z,92.10
2023-01-09T18:27:48.160Z,94.50
2023-01-09T18:31:10.301Z,95.60
2023-01-09T18:34:32.425Z,92.20
2023-01-09T18:37:54.671Z,94.10
2023-01-09T18:41:16.842Z,92.80
2023-01-09T18:44:39.064Z,91.30
2023-01-09T18:48:01.202Z,93.30
2023-01-09T18:51:24.709Z,93.10
2023-01-09T18:54:46.925Z,93.00
2023-01-09T18:58:09.105Z,92.80
2023-01-09T19:01:31.582Z,92.80
2023-01-09T19:04:53.836Z,91.60
2023-01-09T19:08:15.932Z,91.50
2023-01-09T19:11:38.213Z,91.60
2023-01-09T19:15:00.451Z,91.40
2023-01-09T19:18:24.237Z,91.60
2023-01-09T19:21:46.428Z,92.90
2023-01-09T19:25:08.720Z,94.00
2023-01-09T19:28:30.889Z,94.00
2023-01-09T19:31:53.347Z,93.60
2023-01-09T19:35:17.391Z,93.00
2023-01-09T19:38:39.908Z,92.90
2023-01-09T19:42:02.058Z,92.80
2023-01-09T19:45:24.291Z,92.90
2023-01-09T19:48:46.648Z,93.00
2023-01-09T19:52:08.943Z,92.80
2023-01-09T19:55:31.089Z,92.60
2023-01-09T19:58:54.600Z,92.70
2023-01-09T20:02:16.882Z,92.60
2023-01-09T20:05:39.055Z,92.60
2023-01-09T20:09:02.708Z,92.40
2023-01-09T20:12:24.907Z,92.40
2023-01-09T20:15:47.126Z,92.30
2023-01-09T20:19:10.634Z,92.20
2023-01-09T20:22:32.903Z,92.00
2023-01-09T20:25:55.719Z,91.50
2023-01-09T20:29:18.013Z,91.40
2023-01-09T20:32:40.277Z,90.90
2023-01-09T20:36:03.610Z,89.30
2023-01-09T20:39:26.114Z,85.90
2023-01-09T20:42:48.452Z,87.70
2023-01-09T20:46:10.710Z,90.10
2023-01-09T20:49:32.919Z,90.60
2023-01-09T20:52:55.092Z,90.20
2023-01-09T20:56:17.418Z,89.60
2023-01-09T20:59:39.742Z,89.10
2023-01-09T21:03:01.942Z,88.60
2023-01-09T21:06:25.433Z,88.80
2023-01-09T21:09:47.769Z,88.40
2023-01-09T21:13:10.021Z,88.60
2023-01-09T21:16:32.215Z,88.90
2023-01-09T21:19:54.862Z,88.80
2023-01-09T21:23:17.050Z,88.40
2023-01-09T21:26:39.299Z,88.40
2023-01-09T21:30:01.772Z,88.20
2023-01-09T21:33:23.976Z,88.20
2023-01-09T21:36:48.802Z,88.10
2023-01-09T21:40:20.313Z,88.00
2023-01-09T21:44:01.142Z,87.90
2023-01-09T21:47:23.469Z,87.60
2023-01-09T21:50:45.581Z,87.70
2023-01-09T21:54:08.157Z,87.70
2023-01-09T21:57:30.313Z,87.70
2023-01-09T22:00:56.571Z,87.70
2023-01-09T22:04:19.973Z,87.70
2023-01-09T22:07:42.253Z,87.80
2023-01-09T22:11:04.732Z,88.00
2023-01-09T22:14:26.901Z,87.80
2023-01-09T22:17:49.044Z,87.80
2023-01-09T22:21:11.473Z,87.70
2023-01-09T22:24:33.609Z,87.80
2023-01-09T22:27:55.891Z,87.80
2023-01-09T22:31:19.594Z,88.10
2023-01-09T22:34:41.849Z,88.10
2023-01-09T22:38:04.611Z,88.30
2023-01-09T22:41:27.816Z,88.40
2023-01-09T22:44:49.997Z,88.70
2023-01-09T22:48:12.157Z,88.50
2023-01-09T22:51:34.558Z,88.80
2023-01-09T22:54:56.693Z,88.70
2023-01-09T22:58:18.843Z,88.80
2023-01-09T23:01:41.035Z,88.80
2023-01-09T23:05:03.211Z,88.90
2023-01-09T23:08:25.514Z,88.80
2023-01-09T23:12:03.295Z,88.70
2023-01-09T23:15:25.487Z,88.50
2023-01-09T23:18:47.643Z,88.60
2023-01-09T23:22:09.864Z,88.50
2023-01-09T23:25:32.006Z,88.40
2023-01-09T23:28:54.222Z,88.40
2023-01-09T23:32:16.364Z,88.70
2023-01-09T23:35:38.623Z,88.70
2023-01-09T23:39:02.574Z,88.50
2023-01-09T23:42:43.239Z,88.60
2023-01-09T23:46:05.455Z,88.10
2023-01-09T23:49:27.785Z,88.10
2023-01-09T23:52:49.971Z,88.00
2023-01-09T23:56:12.176Z,88.10
2023-01-09T23:59:34.928Z,88.10
